sensor_id;sensor_type;location;lat;lon;timestamp;pressure;altitude;pressure_sealevel;temperature;humidity
73600;BME280;61877;48.246;9.220;2023-11-18T00:02:10;94879.69;;;3.12;100.00
73600;BME280;61877;48.246;9.220;2023-11-18T00:04:37;94875.19;;;3.07;100.00
73600;BME280;61877;48.246;9.220;2023-11-18T00:07:03;94872.81;;;3.06;100.00
73600;BME280;61877;48.246;9.220;2023-11-18T00:09:28;94869.91;;;3.02;100.00
73600;BME280;61877;48.246;9.220;2023-11-18T00:11:53;94869.91;;;3.02;100.00
73600;BME280;61877;48.246;9.220;2023-11-18T00:14:19;94868.88;;;2.98;100.00
73600;BME280;61877;48.246;9.220;2023-11-18T00:16:44;94869.91;;;2.97;100.00
73600;BME280;61877;48.246;9.220;2023-11-18T00:19:09;94869.16;;;2.97;100.00
73600;BME280;61877;48.246;9.220;2023-11-18T00:21:36;94865.97;;;2.95;100.00
73600;BME280;61877;48.246;9.220;2023-11-18T00:24:02;94856.69;;;2.92;100.00
73600;BME280;61877;48.246;9.220;2023-11-18T00:26:27;94855.91;;;2.92;100.00
73600;BME280;61877;48.246;9.220;2023-11-18T00:28:53;94860.38;;;3.01;100.00
73600;BME280;61877;48.246;9.220;2023-11-18T00:31:18;94860.13;;;2.98;100.00
73600;BME280;61877;48.246;9.220;2023-11-18T00:33:43;94856.94;;;2.96;100.00
73600;BME280;61877;48.246;9.220;2023-11-18T00:36:09;94856.94;;;2.96;100.00
73600;BME280;61877;48.246;9.220;2023-11-18T00:38:36;94859.88;;;2.94;100.00
73600;BME280;61877;48.246;9.220;2023-11-18T00:41:01;94866.78;;;2.90;100.00
73600;BME280;61877;48.246;9.220;2023-11-18T00:43:27;94864.91;;;2.91;100.00
73600;BME280;61877;48.246;9.220;2023-11-18T00:45:52;94868.63;;;2.90;100.00
73600;BME280;61877;48.246;9.220;2023-11-18T00:48:20;94868.09;;;2.88;100.00
73600;BME280;61877;48.246;9.220;2023-11-18T00:50:45;94871.03;;;2.86;100.00
73600;BME280;61877;48.246;9.220;2023-11-18T00:53:11;94867.31;;;2.82;100.00
73600;BME280;61877;48.246;9.220;2023-11-18T00:55:38;94867.06;;;2.79;100.00
73600;BME280;61877;48.246;9.220;2023-11-18T00:58:03;94873.19;;;2.74;100.00
73600;BME280;61877;48.246;9.220;2023-11-18T01:00:28;94862.88;;;2.67;100.00
73600;BME280;61877;48.246;9.220;2023-11-18T01:02:54;94865.78;;;2.61;100.00
73600;BME280;61877;48.246;9.220;2023-11-18T01:05:20;94864.22;;;2.55;100.00
73600;BME280;61877;48.246;9.220;2023-11-18T01:07:45;94862.13;;;2.47;100.00
73600;BME280;61877;48.246;9.220;2023-11-18T01:10:11;94852.59;;;2.36;100.00
73600;BME280;61877;48.246;9.220;2023-11-18T01:12:38;94863.47;;;2.24;100.00
73600;BME280;61877;48.246;9.220;2023-11-18T01:15:04;94865.59;;;2.12;100.00
73600;BME280;61877;48.246;9.220;2023-11-18T01:17:30;94864.28;;;2.00;100.00
73600;BME280;61877;48.246;9.220;2023-11-18T01:19:55;94862.44;;;1.90;100.00
73600;BME280;61877;48.246;9.220;2023-11-18T01:22:20;94862.97;;;1.82;100.00
73600;BME280;61877;48.246;9.220;2023-11-18T01:24:46;94863.22;;;1.71;100.00
73600;BME280;61877;48.246;9.220;2023-11-18T01:27:11;94862.13;;;1.62;100.00
73600;BME280;61877;48.246;9.220;2023-11-18T01:29:38;94872.69;;;1.52;100.00
73600;BME280;61877;48.246;9.220;2023-11-18T01:32:04;94865.56;;;1.47;100.00
73600;BME280;61877;48.246;9.220;2023-11-18T01:34:30;94871.63;;;1.48;100.00
73600;BME280;61877;48.246;9.220;2023-11-18T01:36:55;94881.41;;;1.42;100.00
73600;BME280;61877;48.246;9.220;2023-11-18T01:39:21;94890.63;;;1.40;100.00
73600;BME280;61877;48.246;9.220;2023-11-18T01:41:46;94888.28;;;1.43;100.00
73600;BME280;61877;48.246;9.220;2023-11-18T01:44:11;94895.66;;;1.41;100.00
73600;BME280;61877;48.246;9.220;2023-11-18T01:46:38;94901.47;;;1.38;100.00
73600;BME280;61877;48.246;9.220;2023-11-18T01:49:04;94907.00;;;1.31;100.00
73600;BME280;61877;48.246;9.220;2023-11-18T01:51:29;94908.59;;;1.27;100.00
73600;BME280;61877;48.246;9.220;2023-11-18T01:53:56;94909.34;;;1.23;100.00
73600;BME280;61877;48.246;9.220;2023-11-18T01:56:22;94900.66;;;1.22;100.00
73600;BME280;61877;48.246;9.220;2023-11-18T01:58:51;94900.09;;;1.20;100.00
73600;BME280;61877;48.246;9.220;2023-11-18T02:01:16;94901.16;;;1.19;100.00
73600;BME280;61877;48.246;9.220;2023-11-18T02:03:43;94891.34;;;1.15;100.00
73600;BME280;61877;48.246;9.220;2023-11-18T02:06:08;94885.78;;;1.06;100.00
73600;BME280;61877;48.246;9.220;2023-11-18T02:08:34;94886.28;;;1.03;100.00
73600;BME280;61877;48.246;9.220;2023-11-18T02:11:04;94880.00;;;1.09;100.00
73600;BME280;61877;48.246;9.220;2023-11-18T02:13:32;94883.16;;;1.11;100.00
73600;BME280;61877;48.246;9.220;2023-11-18T02:15:59;94885.03;;;1.16;100.00
73600;BME280;61877;48.246;9.220;2023-11-18T02:18:30;94889.00;;;1.18;100.00
73600;BME280;61877;48.246;9.220;2023-11-18T02:20:57;94883.75;;;1.28;100.00
73600;BME280;61877;48.246;9.220;2023-11-18T02:23:23;94886.38;;;1.23;100.00
73600;BME280;61877;48.246;9.220;2023-11-18T02:25:50;94884.25;;;1.20;100.00
73600;BME280;61877;48.246;9.220;2023-11-18T02:28:15;94878.16;;;1.15;100.00
73600;BME280;61877;48.246;9.220;2023-11-18T02:30:41;94875.75;;;1.08;100.00
73600;BME280;61877;48.246;9.220;2023-11-18T02:33:11;94881.28;;;1.02;100.00
73600;BME280;61877;48.246;9.220;2023-11-18T02:35:46;94885.06;;;1.21;100.00
73600;BME280;61877;48.246;9.220;2023-11-18T02:38:13;94880.25;;;1.18;100.00
73600;BME280;61877;48.246;9.220;2023-11-18T02:40:41;94888.69;;;1.10;100.00
73600;BME280;61877;48.246;9.220;2023-11-18T02:43:09;94888.41;;;1.06;100.00
73600;BME280;61877;48.246;9.220;2023-11-18T02:45:36;94888.41;;;1.06;100.00
73600;BME280;61877;48.246;9.220;2023-11-18T02:48:02;94888.41;;;1.06;100.00
73600;BME280;61877;48.246;9.220;2023-11-18T02:50:28;94883.66;;;1.03;100.00
73600;BME280;61877;48.246;9.220;2023-11-18T02:52:53;94886.81;;;1.00;100.00
73600;BME280;61877;48.246;9.220;2023-11-18T02:55:19;94883.63;;;0.98;100.00
73600;BME280;61877;48.246;9.220;2023-11-18T02:57:45;94893.16;;;0.94;100.00
73600;BME280;61877;48.246;9.220;2023-11-18T03:00:13;94885.22;;;0.94;100.00
73600;BME280;61877;48.246;9.220;2023-11-18T03:02:38;94892.06;;;0.95;100.00
73600;BME280;61877;48.246;9.220;2023-11-18T03:05:05;94891.56;;;1.03;100.00
73600;BME280;61877;48.246;9.220;2023-11-18T03:07:30;94882.09;;;1.07;100.00
73600;BME280;61877;48.246;9.220;2023-11-18T03:09:56;94880.00;;;1.09;100.00
73600;BME280;61877;48.246;9.220;2023-11-18T03:12:21;94884.22;;;1.10;100.00
73600;BME280;61877;48.246;9.220;2023-11-18T03:14:47;94885.53;;;1.13;100.00
73600;BME280;61877;48.246;9.220;2023-11-18T03:17:13;94890.31;;;1.16;100.00
73600;BME280;61877;48.246;9.220;2023-11-18T03:19:39;94893.47;;;1.18;100.00
73600;BME280;61877;48.246;9.220;2023-11-18T03:22:04;94891.66;;;1.23;100.00
73600;BME280;61877;48.246;9.220;2023-11-18T03:24:30;94890.34;;;1.26;100.00
73600;BME280;61877;48.246;9.220;2023-11-18T03:26:55;94896.44;;;1.37;100.00
73600;BME280;61877;48.246;9.220;2023-11-18T03:29:20;94895.16;;;1.44;100.00
73600;BME280;61877;48.246;9.220;2023-11-18T03:31:46;94898.31;;;1.46;100.00
73600;BME280;61877;48.246;9.220;2023-11-18T03:34:12;94894.63;;;1.42;100.00
73600;BME280;61877;48.246;9.220;2023-11-18T03:36:38;94892.25;;;1.46;100.00
73600;BME280;61877;48.246;9.220;2023-11-18T03:39:04;94884.84;;;1.48;100.00
73600;BME280;61877;48.246;9.220;2023-11-18T03:41:29;94890.38;;;1.46;100.00
73600;BME280;61877;48.246;9.220;2023-11-18T03:43:54;94886.72;;;1.47;100.00
73600;BME280;61877;48.246;9.220;2023-11-18T03:46:20;94895.16;;;1.44;100.00
73600;BME280;61877;48.246;9.220;2023-11-18T03:48:45;94889.59;;;1.41;100.00
73600;BME280;61877;48.246;9.220;2023-11-18T03:51:12;94886.69;;;1.37;100.00
73600;BME280;61877;48.246;9.220;2023-11-18T03:53:37;94899.88;;;1.32;100.00
73600;BME280;61877;48.246;9.220;2023-11-18T03:56:03;94908.59;;;1.27;100.00
73600;BME280;61877;48.246;9.220;2023-11-18T03:58:28;94908.56;;;1.22;100.00
73600;BME280;61877;48.246;9.220;2023-11-18T04:00:54;94914.91;;;1.21;100.00
73600;BME280;61877;48.246;9.220;2023-11-18T04:03:19;94917.81;;;1.20;100.00
73600;BME280;61877;48.246;9.220;2023-11-18T04:05:45;94907.22;;;1.20;100.00
73600;BME280;61877;48.246;9.220;2023-11-18T04:08:11;94908.03;;;1.20;100.00
73600;BME280;61877;48.246;9.220;2023-11-18T04:10:37;94907.22;;;1.20;100.00
73600;BME280;61877;48.246;9.220;2023-11-18T04:13:02;94903.78;;;1.14;100.00
73600;BME280;61877;48.246;9.220;2023-11-18T04:15:30;94906.19;;;1.16;100.00
73600;BME280;61877;48.246;9.220;2023-11-18T04:17:56;94901.13;;;1.14;100.00
73600;BME280;61877;48.246;9.220;2023-11-18T04:20:21;94895.06;;;1.14;100.00
73600;BME280;61877;48.246;9.220;2023-11-18T04:22:46;94892.16;;;1.10;100.00
73600;BME280;61877;48.246;9.220;2023-11-18T04:25:13;94888.41;;;1.06;100.00
73600;BME280;61877;48.246;9.220;2023-11-18T04:27:39;94888.69;;;1.05;100.00
73600;BME280;61877;48.246;9.220;2023-11-18T04:30:05;94887.91;;;1.04;100.00
73600;BME280;61877;48.246;9.220;2023-11-18T04:32:31;94901.34;;;1.03;100.00
73600;BME280;61877;48.246;9.220;2023-11-18T04:34:56;94900.03;;;1.00;100.00
73600;BME280;61877;48.246;9.220;2023-11-18T04:37:22;94907.94;;;1.00;100.00
73600;BME280;61877;48.246;9.220;2023-11-18T04:39:47;94902.16;;;1.03;100.00
73600;BME280;61877;48.246;9.220;2023-11-18T04:42:14;94901.13;;;1.04;100.00
73600;BME280;61877;48.246;9.220;2023-11-18T04:44:39;94913.53;;;1.04;100.00
73600;BME280;61877;48.246;9.220;2023-11-18T04:47:05;94917.47;;;1.06;100.00
73600;BME280;61877;48.246;9.220;2023-11-18T04:49:30;94905.88;;;1.07;100.00
73600;BME280;61877;48.246;9.220;2023-11-18T04:51:55;94908.53;;;1.07;100.00
73600;BME280;61877;48.246;9.220;2023-11-18T04:54:21;94905.34;;;1.10;100.00
73600;BME280;61877;48.246;9.220;2023-11-18T04:56:46;94900.09;;;1.15;100.00
73600;BME280;61877;48.246;9.220;2023-11-18T04:59:13;94899.03;;;1.16;100.00
73600;BME280;61877;48.246;9.220;2023-11-18T05:01:38;94899.03;;;1.16;100.00
73600;BME280;61877;48.246;9.220;2023-11-18T05:04:04;94890.56;;;1.14;100.00
73600;BME280;61877;48.246;9.220;2023-11-18T05:06:29;94891.88;;;1.12;100.00
73600;BME280;61877;48.246;9.220;2023-11-18T05:08:55;94899.28;;;1.10;100.00
73600;BME280;61877;48.246;9.220;2023-11-18T05:11:20;94898.22;;;1.11;100.00
73600;BME280;61877;48.246;9.220;2023-11-18T05:13:46;94900.34;;;1.09;100.00
73600;BME280;61877;48.246;9.220;2023-11-18T05:16:12;94892.13;;;1.05;100.00
73600;BME280;61877;48.246;9.220;2023-11-18T05:18:38;94897.66;;;0.99;100.00
73600;BME280;61877;48.246;9.220;2023-11-18T05:21:04;94903.94;;;0.93;100.00
73600;BME280;61877;48.246;9.220;2023-11-18T05:23:29;94894.13;;;0.83;100.00
73600;BME280;61877;48.246;9.220;2023-11-18T05:25:55;94891.97;;;0.75;100.00
73600;BME280;61877;48.246;9.220;2023-11-18T05:28:20;94892.50;;;0.72;100.00
73600;BME280;61877;48.246;9.220;2023-11-18T05:30:46;94898.81;;;0.66;100.00
73600;BME280;61877;48.246;9.220;2023-11-18T05:33:12;94888.97;;;0.57;100.00
73600;BME280;61877;48.246;9.220;2023-11-18T05:35:38;94894.25;;;0.57;100.00
73600;BME280;61877;48.246;9.220;2023-11-18T05:38:03;94899.78;;;0.55;100.00
73600;BME280;61877;48.246;9.220;2023-11-18T05:40:28;94900.81;;;0.49;100.00
73600;BME280;61877;48.246;9.220;2023-11-18T05:42:54;94898.16;;;0.44;100.00
73600;BME280;61877;48.246;9.220;2023-11-18T05:45:20;94895.22;;;0.41;100.00
73600;BME280;61877;48.246;9.220;2023-11-18T05:47:45;94897.31;;;0.39;100.00
73600;BME280;61877;48.246;9.220;2023-11-18T05:50:12;94899.16;;;0.38;100.00
73600;BME280;61877;48.246;9.220;2023-11-18T05:52:37;94904.94;;;0.35;100.00
73600;BME280;61877;48.246;9.220;2023-11-18T05:55:03;94899.66;;;0.35;100.00
73600;BME280;61877;48.246;9.220;2023-11-18T05:57:28;94904.94;;;0.35;100.00
73600;BME280;61877;48.246;9.220;2023-11-18T05:59:54;94900.72;;;0.34;100.00
73600;BME280;61877;48.246;9.220;2023-11-18T06:02:19;94901.78;;;0.33;100.00
73600;BME280;61877;48.246;9.220;2023-11-18T06:04:45;94895.19;;;0.36;100.00
73600;BME280;61877;48.246;9.220;2023-11-18T06:07:11;94884.66;;;0.41;100.00
73600;BME280;61877;48.246;9.220;2023-11-18T06:09:37;94896.31;;;0.45;100.00
73600;BME280;61877;48.246;9.220;2023-11-18T06:12:03;94898.72;;;0.51;100.00
73600;BME280;61877;48.246;9.220;2023-11-18T06:14:28;94898.22;;;0.54;100.00
73600;BME280;61877;48.246;9.220;2023-11-18T06:16:54;94896.63;;;0.58;100.00
73600;BME280;61877;48.246;9.220;2023-11-18T06:19:19;94895.06;;;0.57;100.00
73600;BME280;61877;48.246;9.220;2023-11-18T06:21:44;94891.63;;;0.57;100.00
73600;BME280;61877;48.246;9.220;2023-11-18T06:24:11;94892.97;;;0.59;100.00
73600;BME280;61877;48.246;9.220;2023-11-18T06:26:37;94888.75;;;0.63;100.00
73600;BME280;61877;48.246;9.220;2023-11-18T06:29:03;94894.81;;;0.64;100.00
73600;BME280;61877;48.246;9.220;2023-11-18T06:31:28;94896.66;;;0.63;100.00
73600;BME280;61877;48.246;9.220;2023-11-18T06:33:54;94905.06;;;0.55;100.00
73600;BME280;61877;48.246;9.220;2023-11-18T06:36:19;94906.94;;;0.60;100.00
73600;BME280;61877;48.246;9.220;2023-11-18T06:38:45;94907.75;;;0.60;100.00
73600;BME280;61877;48.246;9.220;2023-11-18T06:41:13;94903.06;;;0.72;100.00
73600;BME280;61877;48.246;9.220;2023-11-18T06:43:39;94914.13;;;0.69;100.00
73600;BME280;61877;48.246;9.220;2023-11-18T06:46:05;94918.66;;;0.74;100.00
73600;BME280;61877;48.246;9.220;2023-11-18T06:48:32;94915.19;;;0.73;100.00
73600;BME280;61877;48.246;9.220;2023-11-18T06:50:58;94919.44;;;0.74;100.00
73600;BME280;61877;48.246;9.220;2023-11-18T06:53:23;94913.66;;;0.77;100.00
73600;BME280;61877;48.246;9.220;2023-11-18T06:55:48;94914.72;;;0.81;100.00
73600;BME280;61877;48.246;9.220;2023-11-18T06:58:15;94914.72;;;0.81;100.00
73600;BME280;61877;48.246;9.220;2023-11-18T07:00:41;94908.44;;;0.87;100.00
73600;BME280;61877;48.246;9.220;2023-11-18T07:03:08;94904.75;;;0.98;100.00
73600;BME280;61877;48.246;9.220;2023-11-18T07:05:33;94903.22;;;1.07;100.00
73600;BME280;61877;48.246;9.220;2023-11-18T07:07:58;94899.56;;;1.18;100.00
73600;BME280;61877;48.246;9.220;2023-11-18T07:10:24;94914.38;;;1.24;100.00
73600;BME280;61877;48.246;9.220;2023-11-18T07:12:49;94917.03;;;1.24;100.00
73600;BME280;61877;48.246;9.220;2023-11-18T07:15:16;94915.47;;;1.28;100.00
73600;BME280;61877;48.246;9.220;2023-11-18T07:17:42;94918.94;;;1.39;100.00
73600;BME280;61877;48.246;9.220;2023-11-18T07:20:08;94917.34;;;1.43;100.00
73600;BME280;61877;48.246;9.220;2023-11-18T07:22:34;94910.75;;;1.46;100.00
73600;BME280;61877;48.246;9.220;2023-11-18T07:24:59;94907.59;;;1.44;100.00
73600;BME280;61877;48.246;9.220;2023-11-18T07:27:25;94904.69;;;1.50;100.00
73600;BME280;61877;48.246;9.220;2023-11-18T07:29:50;94912.38;;;1.62;100.00
73600;BME280;61877;48.246;9.220;2023-11-18T07:32:17;94926.34;;;1.42;100.00
73600;BME280;61877;48.246;9.220;2023-11-18T07:34:42;94930.84;;;1.47;100.00
73600;BME280;61877;48.246;9.220;2023-11-18T07:37:08;94926.09;;;1.49;100.00
73600;BME280;61877;48.246;9.220;2023-11-18T07:39:33;94925.56;;;1.52;100.00
73600;BME280;61877;48.246;9.220;2023-11-18T07:41:58;94921.88;;;1.53;100.00
73600;BME280;61877;48.246;9.220;2023-11-18T07:44:24;94923.22;;;1.60;100.00
73600;BME280;61877;48.246;9.220;2023-11-18T07:46:49;94927.44;;;1.56;100.00
73600;BME280;61877;48.246;9.220;2023-11-18T07:49:16;94933.56;;;1.67;100.00
73600;BME280;61877;48.246;9.220;2023-11-18T07:51:42;94925.59;;;1.62;100.00
73600;BME280;61877;48.246;9.220;2023-11-18T07:54:07;94923.53;;;1.74;100.00
73600;BME280;61877;48.246;9.220;2023-11-18T07:56:33;94926.16;;;1.74;100.00
73600;BME280;61877;48.246;9.220;2023-11-18T07:58:58;94923.53;;;1.79;100.00
73600;BME280;61877;48.246;9.220;2023-11-18T08:01:23;94922.19;;;1.81;100.00
73600;BME280;61877;48.246;9.220;2023-11-18T08:03:49;94919.03;;;1.94;100.00
73600;BME280;61877;48.246;9.220;2023-11-18T08:06:16;94916.13;;;1.96;100.00
73600;BME280;61877;48.246;9.220;2023-11-18T08:08:41;94918.28;;;2.04;100.00
73600;BME280;61877;48.246;9.220;2023-11-18T08:11:09;94917.19;;;2.00;100.00
73600;BME280;61877;48.246;9.220;2023-11-18T08:13:35;94914.53;;;1.95;100.00
73600;BME280;61877;48.246;9.220;2023-11-18T08:16:01;94931.22;;;2.00;100.00
73600;BME280;61877;48.246;9.220;2023-11-18T08:18:26;94929.91;;;2.13;100.00
73600;BME280;61877;48.246;9.220;2023-11-18T08:20:52;94929.66;;;2.24;100.00
73600;BME280;61877;48.246;9.220;2023-11-18T08:23:18;94929.38;;;2.26;100.00
73600;BME280;61877;48.246;9.220;2023-11-18T08:25:44;94936.28;;;2.17;100.00
73600;BME280;61877;48.246;9.220;2023-11-18T08:28:09;94926.19;;;2.29;100.00
73600;BME280;61877;48.246;9.220;2023-11-18T08:30:37;94927.53;;;2.31;100.00
73600;BME280;61877;48.246;9.220;2023-11-18T08:33:03;94919.06;;;2.14;100.00
73600;BME280;61877;48.246;9.220;2023-11-18T08:35:28;94923.03;;;2.22;100.00
73600;BME280;61877;48.246;9.220;2023-11-18T08:37:53;94924.88;;;2.21;100.00
73600;BME280;61877;48.246;9.220;2023-11-18T08:40:20;94921.97;;;2.33;100.00
73600;BME280;61877;48.246;9.220;2023-11-18T08:42:46;94923.03;;;2.47;100.00
73600;BME280;61877;48.246;9.220;2023-11-18T08:45:12;94923.81;;;2.57;100.00
73600;BME280;61877;48.246;9.220;2023-11-18T08:47:37;94928.56;;;2.50;100.00
73600;BME280;61877;48.246;9.220;2023-11-18T08:50:07;94938.66;;;2.43;100.00
73600;BME280;61877;48.246;9.220;2023-11-18T08:52:35;94939.97;;;2.46;100.00
73600;BME280;61877;48.246;9.220;2023-11-18T08:55:01;94940.22;;;2.49;100.00
73600;BME280;61877;48.246;9.220;2023-11-18T08:57:32;94929.91;;;2.58;100.00
73600;BME280;61877;48.246;9.220;2023-11-18T08:59:58;94926.16;;;2.79;100.00
73600;BME280;61877;48.246;9.220;2023-11-18T09:02:26;94931.44;;;2.79;100.00
73600;BME280;61877;48.246;9.220;2023-11-18T09:04:52;94933.53;;;2.92;100.00
73600;BME280;61877;48.246;9.220;2023-11-18T09:10:04;94922.47;;;2.80;100.00
73600;BME280;61877;48.246;9.220;2023-11-18T09:12:31;94917.91;;;2.91;100.00
73600;BME280;61877;48.246;9.220;2023-11-18T09:15:00;94925.09;;;2.85;100.00
73600;BME280;61877;48.246;9.220;2023-11-18T09:17:28;94904.63;;;3.01;100.00
73600;BME280;61877;48.246;9.220;2023-11-18T09:19:53;94906.69;;;3.14;100.00
73600;BME280;61877;48.246;9.220;2023-11-18T09:22:19;94892.38;;;3.25;100.00
73600;BME280;61877;48.246;9.220;2023-11-18T09:24:44;94899.94;;;3.46;100.00
73600;BME280;61877;48.246;9.220;2023-11-18T09:27:10;94900.13;;;3.60;100.00
73600;BME280;61877;48.246;9.220;2023-11-18T09:29:37;94901.56;;;3.42;100.00
73600;BME280;61877;48.246;9.220;2023-11-18T09:32:03;94901.72;;;3.61;100.00
73600;BME280;61877;48.246;9.220;2023-11-18T09:34:28;94900.44;;;3.48;100.00
73600;BME280;61877;48.246;9.220;2023-11-18T09:37:28;94903.88;;;3.54;100.00
73600;BME280;61877;48.246;9.220;2023-11-18T09:40:35;94908.84;;;3.65;100.00
73600;BME280;61877;48.246;9.220;2023-11-18T09:43:04;94924.84;;;3.50;98.99
73600;BME280;61877;48.246;9.220;2023-11-18T09:45:34;94913.16;;;3.56;100.00
73600;BME280;61877;48.246;9.220;2023-11-18T09:48:00;94928.44;;;3.74;100.00
73600;BME280;61877;48.246;9.220;2023-11-18T09:50:28;94935.63;;;3.69;100.00
73600;BME280;61877;48.246;9.220;2023-11-18T09:53:00;94934.84;;;3.68;100.00
73600;BME280;61877;48.246;9.220;2023-11-18T09:55:33;94926.78;;;3.83;100.00
73600;BME280;61877;48.246;9.220;2023-11-18T09:58:04;94920.19;;;3.81;100.00
73600;BME280;61877;48.246;9.220;2023-11-18T10:00:36;94917.41;;;4.01;100.00
73600;BME280;61877;48.246;9.220;2023-11-18T10:05:51;94905.34;;;4.14;100.00
73600;BME280;61877;48.246;9.220;2023-11-18T10:08:24;94904.31;;;4.10;100.00
73600;BME280;61877;48.246;9.220;2023-11-18T10:10:51;94891.59;;;4.07;100.00
73600;BME280;61877;48.246;9.220;2023-11-18T10:13:22;94888.00;;;3.92;100.00
73600;BME280;61877;48.246;9.220;2023-11-18T10:18:27;94894.00;;;4.03;100.00
73600;BME280;61877;48.246;9.220;2023-11-18T10:20:52;94901.63;;;4.15;100.00
73600;BME280;61877;48.246;9.220;2023-11-18T10:23:19;94896.78;;;4.22;100.00
73600;BME280;61877;48.246;9.220;2023-11-18T10:25:45;94896.72;;;4.32;100.00
73600;BME280;61877;48.246;9.220;2023-11-18T10:28:21;94893.31;;;4.55;100.00
73600;BME280;61877;48.246;9.220;2023-11-18T10:30:48;94894.56;;;4.67;99.56
73600;BME280;61877;48.246;9.220;2023-11-18T10:33:17;94894.00;;;4.70;100.00
73600;BME280;61877;48.246;9.220;2023-11-18T10:36:04;94888.19;;;4.92;100.00
73600;BME280;61877;48.246;9.220;2023-11-18T10:38:30;94889.53;;;4.89;100.00
73600;BME280;61877;48.246;9.220;2023-11-18T10:41:03;94883.91;;;4.91;98.42
73600;BME280;61877;48.246;9.220;2023-11-18T10:43:34;94886.34;;;4.64;99.35
73600;BME280;61877;48.246;9.220;2023-11-18T10:46:12;94885.00;;;4.90;100.00
73600;BME280;61877;48.246;9.220;2023-11-18T10:48:40;94884.38;;;4.98;100.00
73600;BME280;61877;48.246;9.220;2023-11-18T10:51:06;94877.78;;;4.95;100.00
73600;BME280;61877;48.246;9.220;2023-11-18T10:53:31;94883.00;;;5.05;100.00
73600;BME280;61877;48.246;9.220;2023-11-18T10:55:57;94898.03;;;5.15;100.00
73600;BME280;61877;48.246;9.220;2023-11-18T10:58:22;94905.72;;;5.16;98.39
73600;BME280;61877;48.246;9.220;2023-11-18T11:00:48;94904.03;;;5.25;99.57
73600;BME280;61877;48.246;9.220;2023-11-18T11:03:15;94916.19;;;5.08;99.86
73600;BME280;61877;48.246;9.220;2023-11-18T11:05:41;94905.50;;;5.13;100.00
73600;BME280;61877;48.246;9.220;2023-11-18T11:08:07;94908.78;;;5.05;100.00
73600;BME280;61877;48.246;9.220;2023-11-18T11:10:32;94906.63;;;5.07;100.00
73600;BME280;61877;48.246;9.220;2023-11-18T11:13:02;94886.47;;;5.01;100.00
73600;BME280;61877;48.246;9.220;2023-11-18T11:15:29;94888.19;;;5.15;100.00
73600;BME280;61877;48.246;9.220;2023-11-18T11:17:58;94882.75;;;5.25;100.00
73600;BME280;61877;48.246;9.220;2023-11-18T11:20:33;94868.59;;;5.30;100.00
73600;BME280;61877;48.246;9.220;2023-11-18T11:23:05;94871.84;;;5.27;100.00
73600;BME280;61877;48.246;9.220;2023-11-18T11:25:36;94873.75;;;5.21;100.00
73600;BME280;61877;48.246;9.220;2023-11-18T11:28:09;94874.84;;;5.39;100.00
73600;BME280;61877;48.246;9.220;2023-11-18T11:30:40;94875.53;;;5.50;100.00
73600;BME280;61877;48.246;9.220;2023-11-18T11:33:13;94873.28;;;5.38;98.80
73600;BME280;61877;48.246;9.220;2023-11-18T11:35:43;94875.75;;;5.53;98.87
73600;BME280;61877;48.246;9.220;2023-11-18T11:38:12;94879.13;;;5.40;100.00
73600;BME280;61877;48.246;9.220;2023-11-18T11:40:41;94878.47;;;5.48;100.00
73600;BME280;61877;48.246;9.220;2023-11-18T11:43:08;94875.38;;;5.60;98.41
73600;BME280;61877;48.246;9.220;2023-11-18T11:45:34;94876.97;;;5.79;99.31
73600;BME280;61877;48.246;9.220;2023-11-18T11:48:01;94861.97;;;5.88;99.08
73600;BME280;61877;48.246;9.220;2023-11-18T11:50:31;94857.91;;;6.09;98.22
73600;BME280;61877;48.246;9.220;2023-11-18T11:53:10;94852.00;;;6.12;96.47
73600;BME280;61877;48.246;9.220;2023-11-18T11:55:41;94852.72;;;6.18;96.75
73600;BME280;61877;48.246;9.220;2023-11-18T11:58:26;94845.53;;;6.18;96.62
73600;BME280;61877;48.246;9.220;2023-11-18T12:00:53;94853.84;;;5.98;96.22
73600;BME280;61877;48.246;9.220;2023-11-18T12:03:21;94837.03;;;6.16;95.08
73600;BME280;61877;48.246;9.220;2023-11-18T12:05:47;94829.28;;;6.33;95.91
73600;BME280;61877;48.246;9.220;2023-11-18T12:08:16;94825.13;;;6.27;94.21
73600;BME280;61877;48.246;9.220;2023-11-18T12:10:51;94834.47;;;6.11;95.78
73600;BME280;61877;48.246;9.220;2023-11-18T12:13:19;94837.47;;;6.23;95.68
73600;BME280;61877;48.246;9.220;2023-11-18T12:15:48;94825.72;;;6.24;96.84
73600;BME280;61877;48.246;9.220;2023-11-18T12:18:17;94826.88;;;6.18;96.29
73600;BME280;61877;48.246;9.220;2023-11-18T12:20:43;94824.19;;;6.05;99.35
73600;BME280;61877;48.246;9.220;2023-11-18T12:23:09;94821.44;;;6.10;97.55
73600;BME280;61877;48.246;9.220;2023-11-18T12:25:39;94817.13;;;5.95;99.85
73600;BME280;61877;48.246;9.220;2023-11-18T12:28:08;94811.94;;;5.67;99.65
73600;BME280;61877;48.246;9.220;2023-11-18T12:30:44;94799.56;;;5.57;99.19
73600;BME280;61877;48.246;9.220;2023-11-18T12:33:10;94791.94;;;5.69;100.00
73600;BME280;61877;48.246;9.220;2023-11-18T12:35:42;94790.28;;;5.73;100.00
73600;BME280;61877;48.246;9.220;2023-11-18T12:38:52;94781.81;;;5.71;100.00
73600;BME280;61877;48.246;9.220;2023-11-18T12:41:33;94792.09;;;5.59;99.67
73600;BME280;61877;48.246;9.220;2023-11-18T12:44:11;94790.00;;;5.56;100.00
73600;BME280;61877;48.246;9.220;2023-11-18T12:46:48;94778.78;;;5.59;100.00
73600;BME280;61877;48.246;9.220;2023-11-18T12:49:14;94770.72;;;5.46;100.00
73600;BME280;61877;48.246;9.220;2023-11-18T12:52:02;94767.22;;;5.32;100.00
73600;BME280;61877;48.246;9.220;2023-11-18T12:54:28;94770.03;;;5.40;100.00
73600;BME280;61877;48.246;9.220;2023-11-18T12:56:56;94764.72;;;5.40;100.00
73600;BME280;61877;48.246;9.220;2023-11-18T12:59:21;94758.94;;;5.33;100.00
73600;BME280;61877;48.246;9.220;2023-11-18T13:01:47;94756.56;;;5.32;100.00
73600;BME280;61877;48.246;9.220;2023-11-18T13:04:13;94754.66;;;5.37;100.00
73600;BME280;61877;48.246;9.220;2023-11-18T13:06:38;94757.66;;;5.31;100.00
73600;BME280;61877;48.246;9.220;2023-11-18T13:09:03;94763.84;;;5.26;100.00